OIBA METAR and TAF | Updated Today

OIBA METAR

Abu Musa Island Airport

Observation time: 51 min. ago

OIBA 080500Z 07008KT 7000 FEW025 SCT200 26/14 Q1019

Need help? Read our tutorial on how to read METARs or read the parsed version below.

Abu Musa Island Airport (OIBA) METAR

  • Weather conditions on Wed, 08 Dec 2021 05:00:00 +0000 (51 min. ago):
  • Present conditions: Dry
  • Clouds: A few at 762 meters; scattered at 6096 meters
  • Visibility: 7000 meters
  • Wind: 70 degrees at 8 knots
  • Temperature: 26 celsius
  • Dew point: 14 celsius
  • Pressure: 1019 millibars
  • Remarks: None


Useful to know...